Time;durP1;ratioP1;P1;durP2;ratioP2;P2;SDS_P1;SDS_P2;PMS_P1;PMS_P2;Temp;Humidity;BMP_temperature;BMP_pressure;BME280_temperature;BME280_humidity;BME280_pressure;Samples;Min_cycle;Max_cycle;Signal;HPM_P1;HPM_P2
2022/01/12 07:16:17;;;;;;;17.83;9.65;;;;;;;;;;5283049;22;1321986;-61
2022/01/12 07:18:43;;;;;;;15.10;9.25;;;;;;;;;;5129377;28;20099;-62
2022/01/12 07:21:09;;;;;;;15.00;7.90;;;;;;;;;;5129232;27;20455;-62
2022/01/12 07:23:35;;;;;;;17.27;8.70;;;;;;;;;;5129155;27;20023;-60
2022/01/12 07:26:01;;;;;;;17.13;8.38;;;;;;;;;;5128903;27;20070;-62
2022/01/12 07:28:31;;;;;;;14.65;7.05;;;;;;;;;;5128966;27;20023;-62
2022/01/12 07:30:57;;;;;;;15.75;7.85;;;;;;;;;;5128486;27;20031;-61
2022/01/12 07:33:25;;;;;;;19.98;10.50;;;;;;;;;;5128824;27;20032;-62
2022/01/12 07:35:51;;;;;;;15.48;8.00;;;;;;;;;;5129012;28;20025;-61
2022/01/12 07:38:17;;;;;;;16.27;8.20;;;;;;;;;;5129061;27;20027;-61
2022/01/12 07:40:44;;;;;;;16.75;8.95;;;;;;;;;;5128643;27;20123;-62
2022/01/12 07:43:11;;;;;;;16.77;8.75;;;;;;;;;;5128639;27;20177;-62
2022/01/12 07:45:38;;;;;;;36.58;17.58;;;;;;;;;;5127060;27;20386;-61
2022/01/12 07:48:04;;;;;;;45.95;24.80;;;;;;;;;;5127396;27;20223;-62
2022/01/12 07:50:30;;;;;;;19.90;9.57;;;;;;;;;;5127099;28;21481;-62
2022/01/12 07:52:56;;;;;;;19.20;10.00;;;;;;;;;;5127413;27;20039;-62
2022/01/12 07:55:23;;;;;;;17.70;8.20;;;;;;;;;;5127746;28;20019;-62
2022/01/12 07:57:50;;;;;;;12.75;7.00;;;;;;;;;;5126819;27;20027;-62
2022/01/12 08:00:16;;;;;;;17.75;8.73;;;;;;;;;;5125692;28;20457;-62
2022/01/12 08:02:43;;;;;;;16.33;8.82;;;;;;;;;;5126997;28;20027;-62
2022/01/12 08:05:09;;;;;;;12.65;7.30;;;;;;;;;;5128086;27;20050;-62
2022/01/12 08:07:38;;;;;;;15.02;7.70;;;;;;;;;;5127846;27;20380;-62
2022/01/12 08:10:05;;;;;;;13.55;7.10;;;;;;;;;;5127851;27;20030;-62
2022/01/12 08:12:31;;;;;;;14.73;7.45;;;;;;;;;;5128232;27;20077;-61
2022/01/12 08:14:57;;;;;;;14.55;7.55;;;;;;;;;;5123090;27;20062;-63
2022/01/12 08:17:23;;;;;;;14.35;7.93;;;;;;;;;;5088430;28;20033;-62
2022/01/12 08:19:51;;;;;;;12.98;7.43;;;;;;;;;;5079054;28;20070;-62
2022/01/12 08:22:17;;;;;;;19.13;9.75;;;;;;;;;;5086586;28;20051;-60
2022/01/12 08:24:43;;;;;;;18.73;9.32;;;;;;;;;;5084066;28;20418;-63
2022/01/12 08:27:09;;;;;;;24.65;10.68;;;;;;;;;;5084376;28;20457;-62
2022/01/12 08:29:35;;;;;;;22.75;10.35;;;;;;;;;;5084095;28;20475;-63
2022/01/12 08:32:01;;;;;;;31.42;14.95;;;;;;;;;;5079053;28;20100;-62
2022/01/12 08:34:28;;;;;;;33.67;16.80;;;;;;;;;;5077796;28;20024;-62
2022/01/12 08:36:54;;;;;;;27.42;12.82;;;;;;;;;;5084975;28;20034;-63
2022/01/12 08:39:20;;;;;;;25.52;13.55;;;;;;;;;;5083392;28;20016;-62
2022/01/12 08:41:46;;;;;;;23.40;11.80;;;;;;;;;;5080299;28;20035;-61
2022/01/12 08:44:12;;;;;;;19.67;9.80;;;;;;;;;;5072300;28;20036;-60
2022/01/12 08:46:40;;;;;;;18.20;9.65;;;;;;;;;;5072611;28;20079;-59
2022/01/12 08:49:06;;;;;;;18.90;9.60;;;;;;;;;;5072811;28;20032;-63
2022/01/12 08:51:32;;;;;;;19.30;10.13;;;;;;;;;;5078283;28;20131;-62
2022/01/12 08:53:58;;;;;;;17.15;9.43;;;;;;;;;;5072357;28;20190;-63
2022/01/12 08:56:25;;;;;;;19.45;9.45;;;;;;;;;;5072399;28;20033;-62
2022/01/12 08:58:51;;;;;;;18.95;9.30;;;;;;;;;;5072393;28;20059;-62
2022/01/12 09:01:17;;;;;;;25.05;12.10;;;;;;;;;;5081046;28;20029;-61
2022/01/12 09:03:44;;;;;;;26.23;14.48;;;;;;;;;;5072044;28;20081;-63
2022/01/12 09:06:10;;;;;;;21.63;12.18;;;;;;;;;;5081681;28;20497;-62
2022/01/12 09:08:38;;;;;;;18.42;9.68;;;;;;;;;;5074043;28;20400;-63
2022/01/12 09:11:05;;;;;;;21.73;11.40;;;;;;;;;;5077498;28;20021;-61
2022/01/12 09:13:31;;;;;;;21.63;10.38;;;;;;;;;;5072417;28;20364;-61
2022/01/12 09:15:58;;;;;;;23.60;11.95;;;;;;;;;;5072156;28;20051;-62
2022/01/12 09:18:24;;;;;;;24.38;12.20;;;;;;;;;;5076921;28;20422;-59
2022/01/12 09:20:50;;;;;;;25.58;13.45;;;;;;;;;;5079770;28;20111;-60
2022/01/12 09:23:16;;;;;;;24.83;12.13;;;;;;;;;;5072153;28;20020;-60
2022/01/12 09:25:42;;;;;;;22.88;12.35;;;;;;;;;;5072118;28;20040;-60
2022/01/12 09:28:09;;;;;;;25.92;13.23;;;;;;;;;;5071154;28;20043;-60
2022/01/12 09:30:36;;;;;;;28.67;13.88;;;;;;;;;;5087153;28;20087;-60
2022/01/12 09:33:02;;;;;;;23.42;11.63;;;;;;;;;;5072082;28;20553;-60
2022/01/12 09:35:28;;;;;;;30.85;13.70;;;;;;;;;;5072235;28;20074;-60
2022/01/12 09:37:54;;;;;;;30.90;14.95;;;;;;;;;;5071928;28;20039;-59
2022/01/12 09:40:21;;;;;;;24.05;12.93;;;;;;;;;;5071612;28;20021;-60
2022/01/12 09:42:48;;;;;;;32.75;14.73;;;;;;;;;;5071303;28;20056;-60
2022/01/12 09:45:17;;;;;;;28.27;13.82;;;;;;;;;;5071100;28;20058;-59
2022/01/12 09:47:44;;;;;;;25.88;12.90;;;;;;;;;;5073693;28;20028;-59
2022/01/12 09:50:12;;;;;;;28.45;14.63;;;;;;;;;;5082276;28;20096;-60
2022/01/12 09:52:38;;;;;;;34.60;16.20;;;;;;;;;;5076418;28;20210;-60
2022/01/12 09:55:05;;;;;;;30.52;15.88;;;;;;;;;;5071555;28;20028;-59
2022/01/12 09:57:31;;;;;;;32.67;15.85;;;;;;;;;;5070991;28;20021;-60
2022/01/12 09:59:57;;;;;;;39.83;21.02;;;;;;;;;;5071476;28;20129;-60
2022/01/12 10:02:23;;;;;;;34.67;18.50;;;;;;;;;;5072528;28;20107;-59
2022/01/12 10:05:00;;;;;;;26.90;14.02;;;;;;;;;;5079599;28;20032;-60
2022/01/12 10:07:26;;;;;;;20.80;10.02;;;;;;;;;;5084781;28;20035;-60
2022/01/12 10:09:56;;;;;;;24.33;13.35;;;;;;;;;;5081553;28;20035;-60
2022/01/12 10:12:24;;;;;;;30.25;16.55;;;;;;;;;;5083212;28;20024;-60
2022/01/12 10:14:52;;;;;;;30.83;15.75;;;;;;;;;;5082960;28;20044;-60
2022/01/12 10:17:30;;;;;;;33.38;16.88;;;;;;;;;;5085545;28;20060;-61
2022/01/12 10:20:09;;;;;;;25.67;14.50;;;;;;;;;;5074813;28;20024;-61
2022/01/12 10:22:35;;;;;;;27.25;13.60;;;;;;;;;;5077157;28;20483;-61
2022/01/12 10:25:02;;;;;;;29.95;15.35;;;;;;;;;;5070991;28;20087;-61
2022/01/12 10:27:29;;;;;;;34.47;16.45;;;;;;;;;;5084545;28;20136;-61
2022/01/12 10:30:04;;;;;;;30.05;15.00;;;;;;;;;;5086362;28;20541;-62
2022/01/12 10:32:30;;;;;;;42.35;18.67;;;;;;;;;;5070760;28;20025;-61
2022/01/12 10:34:58;;;;;;;53.97;26.50;;;;;;;;;;5070872;28;20031;-61
2022/01/12 10:37:27;;;;;;;35.17;17.83;;;;;;;;;;5070649;28;20074;-61
2022/01/12 10:39:56;;;;;;;35.58;16.17;;;;;;;;;;5070221;28;20032;-61
2022/01/12 10:42:23;;;;;;;30.45;15.73;;;;;;;;;;5071010;28;20028;-63
2022/01/12 10:44:50;;;;;;;60.53;27.27;;;;;;;;;;5070640;28;20093;-65
2022/01/12 10:47:16;;;;;;;36.25;16.83;;;;;;;;;;5076468;28;20036;-64
2022/01/12 10:49:44;;;;;;;37.80;17.92;;;;;;;;;;5087740;28;20034;-65
2022/01/12 10:52:14;;;;;;;34.28;16.48;;;;;;;;;;5079756;28;20021;-66
2022/01/12 10:54:51;;;;;;;33.15;17.33;;;;;;;;;;5081011;28;20099;-64
2022/01/12 10:57:19;;;;;;;35.55;17.63;;;;;;;;;;5080565;28;20020;-65
2022/01/12 11:00:09;;;;;;;37.70;17.65;;;;;;;;;;5085873;28;20112;-63
2022/01/12 11:02:36;;;;;;;34.40;16.95;;;;;;;;;;5039115;28;20055;-65
2022/01/12 11:05:03;;;;;;;37.70;17.02;;;;;;;;;;5048098;28;20037;-65
2022/01/12 11:07:32;;;;;;;35.17;16.70;;;;;;;;;;5047253;28;20120;-68
2022/01/12 11:10:00;;;;;;;36.65;16.20;;;;;;;;;;5048083;28;20032;-65
2022/01/12 11:12:26;;;;;;;38.00;18.23;;;;;;;;;;5047953;28;20500;-67
2022/01/12 11:14:53;;;;;;;45.50;20.15;;;;;;;;;;5029846;28;20443;-66
2022/01/12 11:17:19;;;;;;;36.22;17.48;;;;;;;;;;5046750;28;20032;-66
2022/01/12 11:20:03;;;;;;;44.58;20.80;;;;;;;;;;5046389;28;20087;-66
2022/01/12 11:22:36;;;;;;;33.90;16.35;;;;;;;;;;5027241;28;20025;-66
2022/01/12 11:25:03;;;;;;;35.55;18.10;;;;;;;;;;5048084;28;20041;-64
2022/01/12 11:27:29;;;;;;;38.80;19.30;;;;;;;;;;5047392;28;20080;-67
2022/01/12 11:29:56;;;;;;;36.83;18.17;;;;;;;;;;5047028;28;20044;-67
2022/01/12 11:32:23;;;;;;;35.50;17.58;;;;;;;;;;5046904;28;20476;-66
2022/01/12 11:35:02;;;;;;;35.35;17.48;;;;;;;;;;5047362;28;20122;-64
2022/01/12 11:37:28;;;;;;;32.92;16.77;;;;;;;;;;5046995;28;20158;-65
2022/01/12 11:39:54;;;;;;;35.03;16.92;;;;;;;;;;5061873;28;20155;-66
2022/01/12 11:42:20;;;;;;;36.15;18.52;;;;;;;;;;5070370;28;20486;-65
2022/01/12 11:44:46;;;;;;;40.72;18.13;;;;;;;;;;5069938;28;20048;-66
2022/01/12 11:47:15;;;;;;;42.42;19.83;;;;;;;;;;5070092;28;20112;-65
2022/01/12 11:49:43;;;;;;;40.05;18.85;;;;;;;;;;5071719;28;20150;-65
2022/01/12 11:52:36;;;;;;;37.95;19.48;;;;;;;;;;5087994;28;20353;-66
2022/01/12 11:55:10;;;;;;;39.83;18.88;;;;;;;;;;5072539;28;20047;-66
2022/01/12 11:57:38;;;;;;;36.67;17.98;;;;;;;;;;5073671;28;20234;-66
2022/01/12 12:00:15;;;;;;;39.20;18.95;;;;;;;;;;5074183;28;20499;-65
2022/01/12 12:02:41;;;;;;;38.83;19.15;;;;;;;;;;5073474;28;20020;-66
2022/01/12 12:05:08;;;;;;;37.05;17.80;;;;;;;;;;5073587;28;20210;-66
2022/01/12 12:07:44;;;;;;;40.72;20.08;;;;;;;;;;5073651;28;20031;-65
2022/01/12 12:10:12;;;;;;;40.15;18.95;;;;;;;;;;5073917;28;20033;-65
2022/01/12 12:12:38;;;;;;;45.08;21.88;;;;;;;;;;5092270;28;20053;-63
2022/01/12 12:15:06;;;;;;;41.95;20.33;;;;;;;;;;5093521;28;20104;-64
2022/01/12 12:17:33;;;;;;;40.97;19.45;;;;;;;;;;5093490;28;20863;-63
2022/01/12 12:19:59;;;;;;;38.70;18.77;;;;;;;;;;5093287;28;20024;-63
2022/01/12 12:22:28;;;;;;;38.00;18.15;;;;;;;;;;5093647;28;20071;-63
2022/01/12 12:24:55;;;;;;;35.38;18.15;;;;;;;;;;5093161;28;20028;-64
2022/01/12 12:27:22;;;;;;;30.73;15.48;;;;;;;;;;5093270;28;20024;-63
2022/01/12 12:29:49;;;;;;;32.30;15.50;;;;;;;;;;5092234;28;20379;-63
2022/01/12 12:32:16;;;;;;;42.13;21.42;;;;;;;;;;5093742;28;20039;-64
2022/01/12 12:34:43;;;;;;;41.97;19.23;;;;;;;;;;5093350;28;20059;-63
2022/01/12 12:37:10;;;;;;;40.83;18.67;;;;;;;;;;5093283;28;20621;-64
2022/01/12 12:39:40;;;;;;;39.70;19.35;;;;;;;;;;5093397;28;20383;-64
2022/01/12 12:42:13;;;;;;;34.38;16.45;;;;;;;;;;5092883;28;20037;-63
2022/01/12 12:44:39;;;;;;;42.65;20.60;;;;;;;;;;5092598;28;20043;-64
2022/01/12 12:47:11;;;;;;;38.35;18.90;;;;;;;;;;5093113;28;20028;-64
2022/01/12 12:49:44;;;;;;;34.53;16.77;;;;;;;;;;5092524;28;20042;-62
2022/01/12 12:52:10;;;;;;;65.38;29.35;;;;;;;;;;5093088;28;20030;-64
2022/01/12 12:54:40;;;;;;;69.85;34.22;;;;;;;;;;5092669;28;20032;-65
2022/01/12 12:57:08;;;;;;;50.00;23.42;;;;;;;;;;5093006;28;20025;-62
2022/01/12 12:59:34;;;;;;;46.40;20.30;;;;;;;;;;5091221;28;20020;-62
2022/01/12 13:02:00;;;;;;;44.92;21.35;;;;;;;;;;5072399;28;20754;-67
2022/01/12 13:04:26;;;;;;;43.38;21.60;;;;;;;;;;5072123;28;20056;-70
2022/01/12 13:06:54;;;;;;;44.80;21.08;;;;;;;;;;5072515;28;20043;-68
2022/01/12 13:09:20;;;;;;;41.28;19.60;;;;;;;;;;5072501;28;20035;-68
2022/01/12 13:11:49;;;;;;;43.97;20.13;;;;;;;;;;5072264;28;20115;-64
2022/01/12 13:14:16;;;;;;;44.88;20.40;;;;;;;;;;5072490;28;20097;-65
2022/01/12 13:16:48;;;;;;;45.08;19.48;;;;;;;;;;5072019;28;20049;-63
2022/01/12 13:19:23;;;;;;;32.70;15.38;;;;;;;;;;5072257;28;20040;-64
2022/01/12 13:21:49;;;;;;;58.15;27.80;;;;;;;;;;5070803;28;20372;-63
2022/01/12 13:24:16;;;;;;;65.03;28.65;;;;;;;;;;5072533;28;20416;-61
2022/01/12 13:26:42;;;;;;;88.45;43.05;;;;;;;;;;5070593;28;20036;-61
2022/01/12 13:29:11;;;;;;;48.22;23.73;;;;;;;;;;5071901;28;20027;-62
2022/01/12 13:31:37;;;;;;;40.13;19.52;;;;;;;;;;5071727;28;20401;-64
2022/01/12 13:34:04;;;;;;;39.20;18.25;;;;;;;;;;5072167;28;20021;-67
2022/01/12 13:36:31;;;;;;;52.58;23.85;;;;;;;;;;5071943;28;20032;-62
2022/01/12 13:39:04;;;;;;;42.60;20.25;;;;;;;;;;5071591;28;20024;-63
2022/01/12 13:41:31;;;;;;;39.15;18.65;;;;;;;;;;5071721;28;20037;-65
2022/01/12 13:43:58;;;;;;;42.15;19.02;;;;;;;;;;5071651;28;20063;-61
2022/01/12 13:46:31;;;;;;;41.95;19.88;;;;;;;;;;5071279;28;20446;-63
2022/01/12 13:52:01;;;;;;;40.60;17.30;;;;;;;;;;5071081;28;20032;-61
2022/01/12 13:54:29;;;;;;;41.58;20.13;;;;;;;;;;5071493;28;20063;-65
2022/01/12 13:56:55;;;;;;;30.92;12.75;;;;;;;;;;5071360;28;20066;-62
2022/01/12 13:59:27;;;;;;;41.00;19.90;;;;;;;;;;5071409;28;20028;-61
2022/01/12 14:01:54;;;;;;;45.25;20.10;;;;;;;;;;5071645;28;20021;-63
2022/01/12 14:04:38;;;;;;;46.22;21.35;;;;;;;;;;5071540;28;20090;-62
2022/01/12 14:07:07;;;;;;;44.25;20.50;;;;;;;;;;5071182;28;20389;-63
2022/01/12 14:09:37;;;;;;;53.05;23.63;;;;;;;;;;5070591;28;20025;-65
2022/01/12 14:12:09;;;;;;;46.78;20.73;;;;;;;;;;5070214;28;20020;-62
2022/01/12 14:14:35;;;;;;;;;;;;;;;;;;5070420;28;20028;-61
2022/01/12 14:17:01;;;;;;;47.83;21.73;;;;;;;;;;5069598;28;20394;-62
2022/01/12 14:19:27;;;;;;;57.28;23.70;;;;;;;;;;5070739;28;20030;-61
2022/01/12 14:21:54;;;;;;;51.50;24.05;;;;;;;;;;5070856;28;20059;-61
2022/01/12 14:24:21;;;;;;;47.67;22.98;;;;;;;;;;5068833;28;20029;-63
2022/01/12 14:26:47;;;;;;;50.42;23.40;;;;;;;;;;5070913;28;20492;-64
2022/01/12 14:29:13;;;;;;;54.60;26.08;;;;;;;;;;5070927;28;20103;-62
2022/01/12 14:31:40;;;;;;;56.53;28.10;;;;;;;;;;5070735;28;20024;-63
2022/01/12 14:34:07;;;;;;;53.15;25.23;;;;;;;;;;5070843;28;20112;-63
2022/01/12 14:36:34;;;;;;;63.13;28.25;;;;;;;;;;5070822;28;20024;-63
2022/01/12 14:39:00;;;;;;;50.35;23.42;;;;;;;;;;5070871;28;20099;-64
2022/01/12 14:41:26;;;;;;;55.30;24.98;;;;;;;;;;5070088;28;20025;-63
2022/01/12 14:43:52;;;;;;;52.20;25.20;;;;;;;;;;5070674;28;20032;-64
2022/01/12 14:46:19;;;;;;;58.83;25.98;;;;;;;;;;5070339;28;20032;-60
2022/01/12 14:48:45;;;;;;;56.85;26.77;;;;;;;;;;5070505;28;20024;-60
2022/01/12 14:51:11;;;;;;;57.47;27.13;;;;;;;;;;5070680;28;20035;-64
2022/01/12 14:53:37;;;;;;;47.30;22.95;;;;;;;;;;5090755;28;20051;-61
2022/01/12 14:56:05;;;;;;;44.50;21.40;;;;;;;;;;5091125;28;20020;-62
2022/01/12 14:58:31;;;;;;;47.65;22.15;;;;;;;;;;5090630;28;20434;-62
2022/01/12 15:00:57;;;;;;;51.47;23.25;;;;;;;;;;5090299;28;20792;-63
2022/01/12 15:03:25;;;;;;;51.67;23.83;;;;;;;;;;5090605;28;20058;-63
2022/01/12 15:05:52;;;;;;;44.75;22.58;;;;;;;;;;5090554;28;20388;-62
2022/01/12 15:08:19;;;;;;;58.63;25.00;;;;;;;;;;5090689;28;20028;-62
2022/01/12 15:10:46;;;;;;;51.83;24.13;;;;;;;;;;5090324;28;20387;-62
2022/01/12 15:13:19;;;;;;;58.42;26.55;;;;;;;;;;5090553;28;20123;-61
2022/01/12 15:15:56;;;;;;;56.22;24.00;;;;;;;;;;5090491;28;20104;-62
2022/01/12 15:18:23;;;;;;;63.55;28.17;;;;;;;;;;5089381;28;20020;-64
2022/01/12 15:20:50;;;;;;;71.40;30.77;;;;;;;;;;5090664;28;20031;-62
2022/01/12 15:23:19;;;;;;;91.63;40.58;;;;;;;;;;5090464;28;20042;-61
2022/01/12 15:25:45;;;;;;;80.53;36.80;;;;;;;;;;5090851;28;20480;-60
2022/01/12 15:28:12;;;;;;;60.35;28.40;;;;;;;;;;5094656;28;20099;-63
2022/01/12 15:30:40;;;;;;;60.78;28.45;;;;;;;;;;5094600;28;20039;-60
2022/01/12 15:33:07;;;;;;;62.65;28.30;;;;;;;;;;5094528;28;20059;-61
2022/01/12 15:35:35;;;;;;;63.00;29.25;;;;;;;;;;5094330;28;20039;-63
2022/01/12 15:38:02;;;;;;;59.00;27.05;;;;;;;;;;5094417;28;20447;-64
2022/01/12 15:40:28;;;;;;;66.93;27.80;;;;;;;;;;5094523;28;20024;-62
2022/01/12 15:42:55;;;;;;;56.85;26.35;;;;;;;;;;5092886;28;20028;-63
2022/01/12 15:45:21;;;;;;;59.17;28.23;;;;;;;;;;5094386;28;20124;-63
2022/01/12 15:47:47;;;;;;;64.30;28.75;;;;;;;;;;5093518;28;20035;-63
2022/01/12 15:50:13;;;;;;;58.95;27.88;;;;;;;;;;5094206;28;20032;-62
2022/01/12 15:52:39;;;;;;;53.83;26.90;;;;;;;;;;5094356;28;20050;-60
2022/01/12 15:55:07;;;;;;;57.47;27.58;;;;;;;;;;5094493;28;20036;-63
2022/01/12 15:57:33;;;;;;;57.80;27.30;;;;;;;;;;5094168;28;20404;-62
2022/01/12 15:59:59;;;;;;;58.10;28.05;;;;;;;;;;5094123;28;20063;-61
2022/01/12 16:02:25;;;;;;;65.50;30.25;;;;;;;;;;5092128;28;20028;-60
2022/01/12 16:04:51;;;;;;;51.65;24.15;;;;;;;;;;5093643;28;20560;-62
2022/01/12 16:07:17;;;;;;;60.83;28.98;;;;;;;;;;5093970;28;20099;-62
2022/01/12 16:09:44;;;;;;;61.17;29.17;;;;;;;;;;5093886;28;20127;-61
2022/01/12 16:12:11;;;;;;;51.15;24.23;;;;;;;;;;5093776;28;20442;-62
2022/01/12 16:14:37;;;;;;;62.33;29.30;;;;;;;;;;5093760;28;20052;-61
2022/01/12 16:17:04;;;;;;;63.58;28.58;;;;;;;;;;5093047;28;20660;-61
2022/01/12 16:19:41;;;;;;;34.67;14.93;;;;;;;;;;5093722;28;20370;-61
2022/01/12 16:22:10;;;;;;;42.60;17.77;;;;;;;;;;5093795;28;20054;-63
2022/01/12 16:24:37;;;;;;;43.95;19.55;;;;;;;;;;5093571;28;20065;-61
2022/01/12 16:27:04;;;;;;;48.45;22.88;;;;;;;;;;5093540;28;20434;-65
2022/01/12 16:29:34;;;;;;;39.72;16.70;;;;;;;;;;5093384;28;20022;-65
2022/01/12 16:32:00;;;;;;;48.40;20.40;;;;;;;;;;5093458;28;20109;-63
2022/01/12 16:34:27;;;;;;;42.80;16.77;;;;;;;;;;5093699;28;20099;-62
2022/01/12 16:36:53;;;;;;;42.85;20.67;;;;;;;;;;5092943;28;20121;-62
2022/01/12 16:39:19;;;;;;;52.67;23.23;;;;;;;;;;5092599;28;20051;-67
2022/01/12 16:41:45;;;;;;;40.47;18.30;;;;;;;;;;5082098;28;20131;-62
2022/01/12 16:44:11;;;;;;;57.47;26.35;;;;;;;;;;5081820;28;20425;-63
2022/01/12 16:46:39;;;;;;;54.88;23.75;;;;;;;;;;5085482;28;20392;-61
2022/01/12 16:49:06;;;;;;;54.30;24.40;;;;;;;;;;5087616;28;20519;-62
2022/01/12 16:51:34;;;;;;;46.53;21.30;;;;;;;;;;5084294;28;20023;-62
2022/01/12 16:54:01;;;;;;;41.75;19.63;;;;;;;;;;5092943;28;20028;-64
2022/01/12 16:56:27;;;;;;;46.97;20.38;;;;;;;;;;5091760;28;20028;-61
2022/01/12 16:58:55;;;;;;;42.58;20.70;;;;;;;;;;5092961;28;20032;-62
2022/01/12 17:01:21;;;;;;;42.08;20.13;;;;;;;;;;5092596;28;20022;-63
2022/01/12 17:03:47;;;;;;;53.03;25.90;;;;;;;;;;5092064;28;20031;-61
2022/01/12 17:06:17;;;;;;;49.03;22.90;;;;;;;;;;5092860;28;20161;-61
2022/01/12 17:08:46;;;;;;;47.53;18.67;;;;;;;;;;5092955;28;20533;-63
2022/01/12 17:11:12;;;;;;;48.95;20.88;;;;;;;;;;5092607;28;20031;-61
2022/01/12 17:13:38;;;;;;;49.03;21.70;;;;;;;;;;5092503;28;20024;-62
2022/01/12 17:16:23;;;;;;;42.42;19.73;;;;;;;;;;5085979;28;20414;-62
2022/01/12 17:18:54;;;;;;;48.15;22.23;;;;;;;;;;5082706;28;20026;-61
2022/01/12 17:21:24;;;;;;;39.75;16.58;;;;;;;;;;5082746;28;20020;-62
2022/01/12 17:24:02;;;;;;;50.72;22.55;;;;;;;;;;5091942;28;20020;-61
2022/01/12 17:26:40;;;;;;;44.72;20.00;;;;;;;;;;5092094;28;20268;-63
2022/01/12 17:29:10;;;;;;;44.38;20.33;;;;;;;;;;5079887;28;20575;-63
2022/01/12 17:31:37;;;;;;;48.15;21.05;;;;;;;;;;5092056;28;20789;-63
2022/01/12 17:34:06;;;;;;;55.47;25.50;;;;;;;;;;5089068;28;20389;-62
2022/01/12 17:36:35;;;;;;;44.20;20.27;;;;;;;;;;5083020;28;20043;-62
2022/01/12 17:39:01;;;;;;;40.85;20.77;;;;;;;;;;5080306;28;20021;-63
2022/01/12 17:41:27;;;;;;;54.85;25.10;;;;;;;;;;5082806;28;20027;-63
2022/01/12 17:43:54;;;;;;;44.72;21.75;;;;;;;;;;5075042;28;20029;-63
2022/01/12 17:46:20;;;;;;;38.28;17.90;;;;;;;;;;5070513;28;20032;-62
2022/01/12 17:48:47;;;;;;;47.78;19.52;;;;;;;;;;5071257;28;20054;-63
2022/01/12 17:51:13;;;;;;;45.40;22.67;;;;;;;;;;5071862;28;20066;-62
2022/01/12 17:53:39;;;;;;;49.33;22.10;;;;;;;;;;5071467;28;20023;-62
2022/01/12 17:56:06;;;;;;;47.03;21.13;;;;;;;;;;5071910;28;20090;-64
2022/01/12 17:58:32;;;;;;;40.22;18.15;;;;;;;;;;5075238;28;20033;-61
2022/01/12 18:00:58;;;;;;;44.60;20.50;;;;;;;;;;5077989;28;20450;-62
2022/01/12 18:03:25;;;;;;;48.83;22.00;;;;;;;;;;5080575;28;20047;-62
2022/01/12 18:05:51;;;;;;;42.25;20.88;;;;;;;;;;5073441;28;20040;-61
2022/01/12 18:08:17;;;;;;;39.95;17.02;;;;;;;;;;5084817;28;20479;-61
2022/01/12 18:10:43;;;;;;;45.25;22.10;;;;;;;;;;5091140;28;20063;-61
2022/01/12 18:13:09;;;;;;;51.83;23.55;;;;;;;;;;5091033;28;20111;-60
2022/01/12 18:15:41;;;;;;;52.20;24.35;;;;;;;;;;5087684;28;20036;-62
2022/01/12 18:18:10;;;;;;;62.53;28.73;;;;;;;;;;5079017;28;20030;-62
2022/01/12 18:20:37;;;;;;;67.10;32.75;;;;;;;;;;5086194;28;20021;-61
2022/01/12 18:23:04;;;;;;;70.00;31.55;;;;;;;;;;5083080;28;20387;-62
2022/01/12 18:25:30;;;;;;;87.32;37.97;;;;;;;;;;5077792;28;20079;-62
2022/01/12 18:27:56;;;;;;;75.80;31.80;;;;;;;;;;5079451;28;20109;-61
2022/01/12 18:30:22;;;;;;;68.43;32.17;;;;;;;;;;5079447;28;20025;-60
2022/01/12 18:32:49;;;;;;;64.80;30.95;;;;;;;;;;5087903;28;20080;-63
2022/01/12 18:35:15;;;;;;;70.80;31.35;;;;;;;;;;5091462;28;20028;-64
2022/01/12 18:37:42;;;;;;;66.45;31.17;;;;;;;;;;5091033;28;20076;-62
2022/01/12 18:40:16;;;;;;;65.30;31.85;;;;;;;;;;5090885;28;20024;-63
2022/01/12 18:42:42;;;;;;;67.80;31.50;;;;;;;;;;5090992;28;20224;-63
2022/01/12 18:45:08;;;;;;;71.18;32.42;;;;;;;;;;5090846;28;20043;-62
2022/01/12 18:47:34;;;;;;;71.30;34.05;;;;;;;;;;5091051;28;20026;-63
2022/01/12 18:50:00;;;;;;;73.93;32.88;;;;;;;;;;5090861;28;20036;-62
2022/01/12 18:52:26;;;;;;;70.60;33.88;;;;;;;;;;5091364;28;20054;-62
2022/01/12 18:54:53;;;;;;;68.80;32.55;;;;;;;;;;5091025;28;20032;-62
2022/01/12 18:57:20;;;;;;;75.70;33.80;;;;;;;;;;5090365;28;20016;-62
2022/01/12 18:59:46;;;;;;;73.10;33.47;;;;;;;;;;5090617;28;20030;-61
2022/01/12 19:02:12;;;;;;;73.28;33.20;;;;;;;;;;5090079;28;20069;-61
2022/01/12 19:04:39;;;;;;;76.75;34.25;;;;;;;;;;5090665;28;20044;-62
2022/01/12 19:07:05;;;;;;;72.57;34.42;;;;;;;;;;5090678;28;20650;-60
2022/01/12 19:09:31;;;;;;;74.85;35.08;;;;;;;;;;5090187;28;20027;-62
2022/01/12 19:11:57;;;;;;;73.05;33.85;;;;;;;;;;5090632;28;20059;-61
2022/01/12 19:14:24;;;;;;;72.13;34.13;;;;;;;;;;5090900;28;20119;-62
2022/01/12 19:16:50;;;;;;;74.55;34.15;;;;;;;;;;5090373;28;20113;-62
2022/01/12 19:19:17;;;;;;;68.80;32.42;;;;;;;;;;5090481;28;20028;-62
2022/01/12 19:21:44;;;;;;;71.30;32.88;;;;;;;;;;5090554;28;20032;-61
2022/01/12 19:24:13;;;;;;;73.45;32.83;;;;;;;;;;5085045;28;20468;-61
2022/01/12 19:26:41;;;;;;;72.85;33.65;;;;;;;;;;5078486;28;20089;-62
2022/01/12 19:29:07;;;;;;;75.45;33.10;;;;;;;;;;5090292;28;20028;-61
2022/01/12 19:31:34;;;;;;;68.68;32.38;;;;;;;;;;5090081;28;20039;-61
2022/01/12 19:34:00;;;;;;;66.03;30.73;;;;;;;;;;5090534;28;20379;-61
2022/01/12 19:36:26;;;;;;;70.38;32.63;;;;;;;;;;5090100;28;20063;-60
2022/01/12 19:38:52;;;;;;;65.15;31.17;;;;;;;;;;5090288;28;20029;-62
2022/01/12 19:41:18;;;;;;;66.57;30.92;;;;;;;;;;5090765;28;20028;-61
2022/01/12 19:43:45;;;;;;;66.57;31.52;;;;;;;;;;5090302;28;20113;-60
2022/01/12 19:46:14;;;;;;;69.80;31.48;;;;;;;;;;5090102;28;20044;-60
2022/01/12 19:48:40;;;;;;;69.18;33.08;;;;;;;;;;5090412;28;20020;-61
2022/01/12 19:51:07;;;;;;;71.45;32.50;;;;;;;;;;5090346;28;20032;-61
2022/01/12 19:53:33;;;;;;;67.88;31.15;;;;;;;;;;5090033;28;20020;-61
2022/01/12 19:56:06;;;;;;;69.70;30.77;;;;;;;;;;5090253;28;20059;-62
2022/01/12 19:58:49;;;;;;;72.95;32.42;;;;;;;;;;5090054;28;20036;-62
2022/01/12 20:01:27;;;;;;;76.75;33.42;;;;;;;;;;5089103;28;20074;-61
2022/01/12 20:03:53;;;;;;;74.47;34.00;;;;;;;;;;5090464;28;20020;-62
2022/01/12 20:06:20;;;;;;;78.47;34.63;;;;;;;;;;5090477;28;20208;-62
2022/01/12 20:08:48;;;;;;;77.40;33.35;;;;;;;;;;5088900;28;20387;-62
2022/01/12 20:11:16;;;;;;;79.80;35.40;;;;;;;;;;5090376;28;20024;-61
2022/01/12 20:13:45;;;;;;;72.88;35.20;;;;;;;;;;5093700;28;20032;-65
2022/01/12 20:16:18;;;;;;;107.82;46.72;;;;;;;;;;5093964;28;20052;-62
2022/01/12 20:21:47;;;;;;;177.30;79.35;;;;;;;;;;5094435;28;20085;-63
2022/01/12 20:24:32;;;;;;;144.20;63.30;;;;;;;;;;5094078;28;20096;-63
2022/01/12 20:27:00;;;;;;;132.73;58.42;;;;;;;;;;5093881;28;20046;-62
2022/01/12 20:29:30;;;;;;;131.27;56.53;;;;;;;;;;5093937;28;20491;-64
2022/01/12 20:31:56;;;;;;;124.43;53.83;;;;;;;;;;5093150;28;20043;-64
2022/01/12 20:34:22;;;;;;;117.70;51.33;;;;;;;;;;5093525;28;20472;-62
2022/01/12 20:36:48;;;;;;;118.05;50.95;;;;;;;;;;5093687;28;20032;-63
2022/01/12 20:39:14;;;;;;;112.80;50.00;;;;;;;;;;5093255;28;20437;-62
2022/01/12 20:41:41;;;;;;;117.13;50.92;;;;;;;;;;5093667;28;20028;-63
2022/01/12 20:44:08;;;;;;;127.38;53.00;;;;;;;;;;5081560;28;20032;-63
2022/01/12 20:46:35;;;;;;;154.52;62.00;;;;;;;;;;5073177;28;20033;-63
2022/01/12 20:49:01;;;;;;;150.15;62.92;;;;;;;;;;5072998;28;20017;-62
2022/01/12 20:51:29;;;;;;;155.35;64.82;;;;;;;;;;5093930;28;20031;-63
2022/01/12 20:53:58;;;;;;;152.38;64.97;;;;;;;;;;5074470;28;20099;-62
2022/01/12 20:56:25;;;;;;;156.43;63.50;;;;;;;;;;5073066;28;20377;-62
2022/01/12 20:58:51;;;;;;;142.32;59.55;;;;;;;;;;5072675;28;20016;-62
2022/01/12 21:01:17;;;;;;;132.13;55.03;;;;;;;;;;5072837;28;20033;-63
2022/01/12 21:03:44;;;;;;;119.90;52.40;;;;;;;;;;5080228;28;20077;-63
2022/01/12 21:06:10;;;;;;;123.32;52.65;;;;;;;;;;5092114;28;20032;-63
2022/01/12 21:08:37;;;;;;;158.63;64.50;;;;;;;;;;5092661;28;20172;-62
2022/01/12 21:11:04;;;;;;;145.10;61.50;;;;;;;;;;5092293;28;20364;-62
2022/01/12 21:13:30;;;;;;;160.23;67.00;;;;;;;;;;5092510;28;20024;-62
2022/01/12 21:15:57;;;;;;;130.38;56.65;;;;;;;;;;5091423;28;20046;-63
2022/01/12 21:18:23;;;;;;;146.13;61.85;;;;;;;;;;5092321;28;20020;-63
2022/01/12 21:20:49;;;;;;;144.85;60.33;;;;;;;;;;5092309;28;20103;-63
2022/01/12 21:23:15;;;;;;;132.57;54.88;;;;;;;;;;5092256;28;20036;-62
2022/01/12 21:25:41;;;;;;;125.63;54.85;;;;;;;;;;5092190;28;20511;-62
2022/01/12 21:28:07;;;;;;;134.07;54.70;;;;;;;;;;5091897;28;20076;-62
2022/01/12 21:30:33;;;;;;;104.82;45.30;;;;;;;;;;5092286;28;20032;-63
2022/01/12 21:32:59;;;;;;;103.45;46.67;;;;;;;;;;5091859;28;20024;-63
2022/01/12 21:35:31;;;;;;;118.43;50.50;;;;;;;;;;5092516;28;20023;-62
2022/01/12 21:38:05;;;;;;;161.45;60.65;;;;;;;;;;5092259;28;20031;-62
2022/01/12 21:40:43;;;;;;;138.02;53.70;;;;;;;;;;5092413;28;20410;-62